DAL1708 KSLC-KSEA
Flight info
| Callsign | DAL1708 |
|---|---|
| Flight time | N/A |
| Altitude | 36000 |
| Route | CGULL1 TWF PDT CHINS5 |
| Aircraft | A321/M-SDE3FGHIRWY/LB1 |
Departure
| Time | 2026-05-07 19:00 |
|---|---|
| Airport | Salt Lake City International Airport (KSLC) |
Arrival
| Time | N/A |
|---|---|
| Airport | Seattle–Tacoma International Airport (KSEA) |
| Time | Latitude | Longitude | Altitude | Speed | Heading |
|---|---|---|---|---|---|
| 2026-05-07 18:13 | 40.78822 | -111.98832 | 4231 ft | 0 kts | 355° |
| 2026-05-07 18:45 | 40.78811 | -111.98831 | 4231 ft | 4 kts | 355° |
| 2026-05-07 18:45 | 40.78785 | -111.98828 | 4231 ft | 2 kts | 355° |
| 2026-05-07 18:46 | 40.78763 | -111.98830 | 4231 ft | 4 kts | 38° |
| 2026-05-07 18:46 | 40.78750 | -111.98857 | 4231 ft | 4 kts | 79° |
| 2026-05-07 18:46 | 40.78747 | -111.98893 | 4231 ft | 4 kts | 87° |
| 2026-05-07 18:46 | 40.78747 | -111.98900 | 4231 ft | 4 kts | 85° |
| 2026-05-07 18:47 | 40.78750 | -111.98864 | 4231 ft | 4 kts | 85° |
| 2026-05-07 18:47 | 40.78752 | -111.98829 | 4231 ft | 4 kts | 84° |
| 2026-05-07 18:47 | 40.78755 | -111.98793 | 4231 ft | 4 kts | 84° |
| 2026-05-07 18:47 | 40.78756 | -111.98774 | 4231 ft | 0 kts | 84° |
| 2026-05-07 18:51 | 40.78757 | -111.98760 | 4231 ft | 4 kts | 84° |
| 2026-05-07 18:51 | 40.78760 | -111.98723 | 4231 ft | 3 kts | 84° |
| 2026-05-07 18:51 | 40.78762 | -111.98695 | 4231 ft | 5 kts | 84° |
| 2026-05-07 18:52 | 40.78770 | -111.98583 | 4231 ft | 16 kts | 85° |
| 2026-05-07 18:52 | 40.78780 | -111.98441 | 4231 ft | 15 kts | 85° |
| 2026-05-07 18:52 | 40.78789 | -111.98313 | 4231 ft | 13 kts | 84° |
| 2026-05-07 18:52 | 40.78798 | -111.98198 | 4231 ft | 12 kts | 84° |
| 2026-05-07 18:53 | 40.78805 | -111.98093 | 4231 ft | 12 kts | 84° |
| 2026-05-07 18:53 | 40.78812 | -111.97993 | 4231 ft | 10 kts | 85° |
| 2026-05-07 18:53 | 40.78818 | -111.97908 | 4231 ft | 9 kts | 84° |
| 2026-05-07 18:53 | 40.78826 | -111.97802 | 4231 ft | 13 kts | 84° |
| 2026-05-07 18:54 | 40.78850 | -111.97704 | 4231 ft | 10 kts | 41° |
| 2026-05-07 18:54 | 40.78911 | -111.97700 | 4231 ft | 8 kts | 353° |
| 2026-05-07 18:54 | 40.78969 | -111.97708 | 4231 ft | 11 kts | 354° |
| 2026-05-07 18:54 | 40.79067 | -111.97718 | 4231 ft | 14 kts | 356° |
| 2026-05-07 18:55 | 40.79182 | -111.97731 | 4231 ft | 20 kts | 354° |
| 2026-05-07 18:55 | 40.79320 | -111.97748 | 4231 ft | 19 kts | 355° |
| 2026-05-07 18:55 | 40.79444 | -111.97762 | 4231 ft | 17 kts | 355° |
| 2026-05-07 18:55 | 40.79554 | -111.97775 | 4230 ft | 15 kts | 355° |
| 2026-05-07 18:56 | 40.79650 | -111.97785 | 4230 ft | 14 kts | 355° |
| 2026-05-07 18:56 | 40.79769 | -111.97799 | 4231 ft | 19 kts | 354° |
| 2026-05-07 18:56 | 40.79895 | -111.97814 | 4231 ft | 17 kts | 355° |
| 2026-05-07 18:56 | 40.80033 | -111.97830 | 4231 ft | 24 kts | 354° |
| 2026-05-07 18:57 | 40.80201 | -111.97849 | 4231 ft | 22 kts | 357° |
| 2026-05-07 18:57 | 40.80334 | -111.97825 | 4232 ft | 18 kts | 13° |
| 2026-05-07 18:57 | 40.80452 | -111.97826 | 4231 ft | 16 kts | 354° |
| 2026-05-07 18:57 | 40.80556 | -111.97839 | 4231 ft | 14 kts | 355° |
| 2026-05-07 18:58 | 40.80651 | -111.97850 | 4231 ft | 13 kts | 355° |
| 2026-05-07 18:58 | 40.80728 | -111.97855 | 4230 ft | 9 kts | 14° |
| 2026-05-07 18:58 | 40.80746 | -111.97795 | 4229 ft | 7 kts | 97° |
| 2026-05-07 18:58 | 40.80724 | -111.97736 | 4229 ft | 8 kts | 128° |
| 2026-05-07 18:59 | 40.80682 | -111.97697 | 4229 ft | 7 kts | 159° |
| 2026-05-07 18:59 | 40.80650 | -111.97689 | 4229 ft | 0 kts | 173° |
| 2026-05-07 18:59 | 40.80648 | -111.97688 | 4229 ft | 2 kts | 173° |
| 2026-05-07 18:59 | 40.80474 | -111.97667 | 4233 ft | 57 kts | 175° |
| 2026-05-07 19:00 | 40.79885 | -111.97598 | 4231 ft | 113 kts | 175° |
| 2026-05-07 19:00 | 40.78946 | -111.97488 | 4232 ft | 155 kts | 175° |
| 2026-05-07 19:00 | 40.77792 | -111.97360 | 4609 ft | 166 kts | 174° |
| 2026-05-07 19:00 | 40.76629 | -111.97222 | 5177 ft | 170 kts | 175° |
| 2026-05-07 19:01 | 40.75424 | -111.97059 | 5681 ft | 177 kts | 176° |
| 2026-05-07 19:01 | 40.74164 | -111.96882 | 6055 ft | 189 kts | 174° |
| 2026-05-07 19:01 | 40.72810 | -111.96698 | 6196 ft | 202 kts | 176° |
| 2026-05-07 19:01 | 40.71374 | -111.96556 | 6342 ft | 211 kts | 181° |
| 2026-05-07 19:02 | 40.69938 | -111.97107 | 6438 ft | 226 kts | 212° |
| 2026-05-07 19:02 | 40.68876 | -111.98738 | 6542 ft | 252 kts | 248° |
| 2026-05-07 19:02 | 40.68736 | -112.01123 | 6764 ft | 279 kts | 281° |
| 2026-05-07 19:02 | 40.69694 | -112.03387 | 7277 ft | 289 kts | 309° |
| 2026-05-07 19:03 | 40.71141 | -112.05166 | 8254 ft | 281 kts | 319° |
| 2026-05-07 19:03 | 40.72705 | -112.06699 | 9158 ft | 280 kts | 322° |
| 2026-05-07 19:03 | 40.74300 | -112.08175 | 9939 ft | 281 kts | 322° |
| 2026-05-07 19:03 | 40.75901 | -112.09681 | 10342 ft | 296 kts | 321° |
| 2026-05-07 19:04 | 40.77617 | -112.11358 | 10477 ft | 318 kts | 321° |
| 2026-05-07 19:04 | 40.79433 | -112.13199 | 10653 ft | 338 kts | 320° |
| 2026-05-07 19:04 | 40.81312 | -112.15159 | 11074 ft | 348 kts | 319° |
| 2026-05-07 19:04 | 40.83208 | -112.17167 | 11746 ft | 350 kts | 319° |
| 2026-05-07 19:05 | 40.85104 | -112.19189 | 12489 ft | 351 kts | 319° |
| 2026-05-07 19:05 | 40.87007 | -112.21224 | 13198 ft | 353 kts | 319° |
| 2026-05-07 19:05 | 40.88921 | -112.23272 | 13887 ft | 355 kts | 319° |
| 2026-05-07 19:05 | 40.90849 | -112.25332 | 14482 ft | 357 kts | 319° |
| 2026-05-07 19:06 | 40.92789 | -112.27403 | 15103 ft | 359 kts | 319° |
| 2026-05-07 19:06 | 40.96690 | -112.31576 | 16295 ft | 363 kts | 319° |
| 2026-05-07 19:06 | 40.98659 | -112.33681 | 16898 ft | 364 kts | 319° |
| 2026-05-07 19:07 | 41.00631 | -112.35791 | 17488 ft | 366 kts | 319° |
| 2026-05-07 19:07 | 41.02624 | -112.37921 | 18060 ft | 368 kts | 319° |
| 2026-05-07 19:07 | 41.04624 | -112.40058 | 18580 ft | 370 kts | 319° |
| 2026-05-07 19:07 | 41.06637 | -112.42202 | 19054 ft | 372 kts | 321° |
| 2026-05-07 19:08 | 41.08798 | -112.44122 | 19528 ft | 375 kts | 326° |
| 2026-05-07 19:08 | 41.11007 | -112.45981 | 19999 ft | 377 kts | 326° |
| 2026-05-07 19:08 | 41.13229 | -112.47850 | 20429 ft | 380 kts | 326° |
| 2026-05-07 19:08 | 41.15470 | -112.49732 | 20885 ft | 382 kts | 326° |
| 2026-05-07 19:09 | 41.17705 | -112.51649 | 21355 ft | 383 kts | 324° |
| 2026-05-07 19:09 | 41.19878 | -112.53705 | 21831 ft | 385 kts | 322° |
| 2026-05-07 19:09 | 41.22009 | -112.55868 | 22289 ft | 386 kts | 321° |
| 2026-05-07 19:09 | 41.24125 | -112.58089 | 22756 ft | 388 kts | 321° |
| 2026-05-07 19:10 | 41.26245 | -112.60328 | 23208 ft | 390 kts | 321° |
| 2026-05-07 19:10 | 41.28290 | -112.62704 | 23623 ft | 392 kts | 314° |
| 2026-05-07 19:10 | 41.30121 | -112.65397 | 23981 ft | 394 kts | 312° |
| 2026-05-07 19:10 | 41.31968 | -112.68115 | 24340 ft | 396 kts | 313° |
| 2026-05-07 19:11 | 41.33828 | -112.70826 | 24706 ft | 398 kts | 313° |
| 2026-05-07 19:11 | 41.35698 | -112.73544 | 25080 ft | 399 kts | 313° |
| 2026-05-07 19:11 | 41.37573 | -112.76275 | 25438 ft | 400 kts | 313° |
| 2026-05-07 19:11 | 41.39454 | -112.79023 | 25762 ft | 403 kts | 313° |
| 2026-05-07 19:12 | 41.41340 | -112.81801 | 26061 ft | 405 kts | 312° |
| 2026-05-07 19:12 | 41.43212 | -112.84624 | 26391 ft | 407 kts | 311° |
| 2026-05-07 19:12 | 41.45076 | -112.87476 | 26715 ft | 409 kts | 311° |
| 2026-05-07 19:12 | 41.46936 | -112.90350 | 27035 ft | 411 kts | 311° |
| 2026-05-07 19:13 | 41.48808 | -112.93250 | 27359 ft | 413 kts | 311° |
| 2026-05-07 19:13 | 41.50686 | -112.96149 | 27688 ft | 414 kts | 311° |
| 2026-05-07 19:13 | 41.52576 | -112.99058 | 27992 ft | 416 kts | 311° |
| 2026-05-07 19:13 | 41.54474 | -113.01976 | 28304 ft | 417 kts | 311° |
| 2026-05-07 19:14 | 41.56384 | -113.04909 | 28614 ft | 419 kts | 311° |
| 2026-05-07 19:14 | 41.58300 | -113.07850 | 28911 ft | 421 kts | 311° |
| 2026-05-07 19:14 | 41.60219 | -113.10798 | 29241 ft | 420 kts | 311° |
| 2026-05-07 19:14 | 41.62133 | -113.13746 | 29608 ft | 420 kts | 311° |
| 2026-05-07 19:15 | 41.64045 | -113.16697 | 30016 ft | 419 kts | 311° |
| 2026-05-07 19:15 | 41.65946 | -113.19631 | 30376 ft | 417 kts | 311° |
| 2026-05-07 19:15 | 41.67846 | -113.22563 | 30727 ft | 416 kts | 311° |
| 2026-05-07 19:15 | 41.69735 | -113.25487 | 31077 ft | 414 kts | 311° |
| 2026-05-07 19:16 | 41.71614 | -113.28401 | 31442 ft | 413 kts | 311° |
| 2026-05-07 19:16 | 41.73486 | -113.31310 | 31809 ft | 412 kts | 311° |
| 2026-05-07 19:16 | 41.75349 | -113.34210 | 32165 ft | 410 kts | 311° |
| 2026-05-07 19:16 | 41.77206 | -113.37100 | 32529 ft | 409 kts | 311° |
| 2026-05-07 19:17 | 41.79059 | -113.39984 | 32949 ft | 406 kts | 311° |
| 2026-05-07 19:17 | 41.80892 | -113.42833 | 33376 ft | 403 kts | 311° |
| 2026-05-07 19:17 | 41.82727 | -113.45684 | 33652 ft | 404 kts | 311° |
| 2026-05-07 19:17 | 41.84533 | -113.48497 | 33976 ft | 403 kts | 311° |
| 2026-05-07 19:18 | 41.86385 | -113.51387 | 34242 ft | 403 kts | 311° |
| 2026-05-07 19:18 | 41.88211 | -113.54240 | 34540 ft | 402 kts | 311° |
| 2026-05-07 19:18 | 41.90025 | -113.57078 | 34889 ft | 400 kts | 311° |
| 2026-05-07 19:18 | 41.91809 | -113.59868 | 35191 ft | 399 kts | 311° |
| 2026-05-07 19:19 | 41.93613 | -113.62691 | 35548 ft | 397 kts | 311° |
| 2026-05-07 19:19 | 41.95402 | -113.65497 | 35884 ft | 394 kts | 311° |
| 2026-05-07 19:19 | 41.97179 | -113.68295 | 36000 ft | 393 kts | 311° |
| 2026-05-07 19:19 | 41.98944 | -113.71077 | 36022 ft | 390 kts | 311° |
| 2026-05-07 19:20 | 42.02464 | -113.76628 | 36021 ft | 391 kts | 311° |
| 2026-05-07 19:20 | 42.06004 | -113.82202 | 36028 ft | 392 kts | 311° |
| 2026-05-07 19:21 | 42.09542 | -113.87782 | 36022 ft | 391 kts | 311° |
| 2026-05-07 19:21 | 42.13075 | -113.93356 | 36018 ft | 391 kts | 311° |
| 2026-05-07 19:22 | 42.16590 | -113.98942 | 36023 ft | 391 kts | 311° |
| 2026-05-07 19:22 | 42.20111 | -114.04527 | 36006 ft | 390 kts | 311° |
| 2026-05-07 19:23 | 42.23637 | -114.10099 | 35984 ft | 391 kts | 311° |
| 2026-05-07 19:23 | 42.27170 | -114.15699 | 35986 ft | 392 kts | 311° |
| 2026-05-07 19:24 | 42.30111 | -114.20367 | 35990 ft | 393 kts | 311° |
| 2026-05-07 19:24 | 42.33642 | -114.25986 | 35989 ft | 393 kts | 311° |
| 2026-05-07 19:25 | 42.37182 | -114.31637 | 36001 ft | 393 kts | 311° |
| 2026-05-07 19:25 | 42.40706 | -114.37275 | 36004 ft | 392 kts | 311° |
| 2026-05-07 19:26 | 42.42467 | -114.40095 | 36118 ft | 392 kts | 311° |
| 2026-05-07 19:26 | 42.44224 | -114.42914 | 36118 ft | 392 kts | 311° |
| 2026-05-07 19:26 | 42.47743 | -114.48542 | 36115 ft | 391 kts | 313° |
| 2026-05-07 19:27 | 42.51673 | -114.53629 | 36121 ft | 390 kts | 316° |
| 2026-05-07 19:27 | 42.55623 | -114.58671 | 36114 ft | 390 kts | 316° |
| 2026-05-07 19:28 | 42.59562 | -114.63736 | 36057 ft | 391 kts | 316° |
| 2026-05-07 19:28 | 42.63519 | -114.68827 | 36054 ft | 392 kts | 316° |
| 2026-05-07 19:29 | 42.67466 | -114.73914 | 36046 ft | 390 kts | 316° |
| 2026-05-07 19:29 | 42.71407 | -114.78995 | 36031 ft | 390 kts | 316° |
| 2026-05-07 19:30 | 42.75344 | -114.84067 | 36013 ft | 390 kts | 316° |
| 2026-05-07 19:30 | 42.79278 | -114.89152 | 36005 ft | 390 kts | 316° |
| 2026-05-07 19:31 | 42.83210 | -114.94244 | 35992 ft | 390 kts | 316° |
| 2026-05-07 19:31 | 42.87132 | -114.99345 | 35996 ft | 390 kts | 316° |
| 2026-05-07 19:32 | 42.91026 | -115.04420 | 36050 ft | 390 kts | 316° |
| 2026-05-07 19:32 | 42.94947 | -115.09529 | 36039 ft | 390 kts | 316° |
| 2026-05-07 19:33 | 42.98860 | -115.14638 | 36032 ft | 389 kts | 316° |
| 2026-05-07 19:33 | 43.02775 | -115.19767 | 36014 ft | 389 kts | 316° |
| 2026-05-07 19:34 | 43.06682 | -115.24889 | 36002 ft | 389 kts | 316° |
| 2026-05-07 19:34 | 43.10592 | -115.30017 | 36015 ft | 389 kts | 315° |
| 2026-05-07 19:35 | 43.14496 | -115.35153 | 36018 ft | 389 kts | 315° |
| 2026-05-07 19:35 | 43.18396 | -115.40289 | 36009 ft | 389 kts | 315° |
| 2026-05-07 19:36 | 43.22292 | -115.45434 | 36003 ft | 389 kts | 316° |
| 2026-05-07 19:36 | 43.26188 | -115.50583 | 36006 ft | 389 kts | 315° |
| 2026-05-07 19:37 | 43.30073 | -115.55739 | 36017 ft | 389 kts | 315° |
| 2026-05-07 19:37 | 43.33952 | -115.60904 | 36011 ft | 389 kts | 315° |
| 2026-05-07 19:38 | 43.37837 | -115.66073 | 36011 ft | 389 kts | 315° |
| 2026-05-07 19:38 | 43.41723 | -115.71240 | 36021 ft | 388 kts | 315° |
| 2026-05-07 19:39 | 43.45602 | -115.76407 | 36009 ft | 388 kts | 315° |
| 2026-05-07 19:39 | 43.49478 | -115.81578 | 36023 ft | 388 kts | 315° |
| 2026-05-07 19:40 | 43.53314 | -115.86730 | 36031 ft | 388 kts | 315° |
| 2026-05-07 19:40 | 43.57177 | -115.91918 | 36055 ft | 388 kts | 315° |
| 2026-05-07 19:41 | 43.61035 | -115.97108 | 36028 ft | 387 kts | 315° |
| 2026-05-07 19:41 | 43.64888 | -116.02303 | 36022 ft | 387 kts | 315° |
| 2026-05-07 19:42 | 43.68737 | -116.07506 | 36019 ft | 387 kts | 314° |
| 2026-05-07 19:42 | 43.72583 | -116.12716 | 36015 ft | 387 kts | 315° |
| 2026-05-07 19:43 | 43.76429 | -116.17922 | 36014 ft | 387 kts | 315° |
| 2026-05-07 19:43 | 43.80271 | -116.23140 | 36007 ft | 387 kts | 315° |
| 2026-05-07 19:44 | 43.84102 | -116.28369 | 36024 ft | 387 kts | 315° |
| 2026-05-07 19:44 | 43.87951 | -116.33607 | 36026 ft | 387 kts | 314° |
| 2026-05-07 19:45 | 43.91790 | -116.38849 | 36027 ft | 387 kts | 314° |
| 2026-05-07 19:45 | 43.95625 | -116.44095 | 36026 ft | 387 kts | 314° |
| 2026-05-07 19:46 | 43.99455 | -116.49348 | 36021 ft | 387 kts | 314° |
| 2026-05-07 19:46 | 44.03277 | -116.54611 | 36040 ft | 387 kts | 314° |
| 2026-05-07 19:47 | 44.07094 | -116.59869 | 36043 ft | 386 kts | 314° |
| 2026-05-07 19:47 | 44.10906 | -116.65118 | 36047 ft | 386 kts | 314° |
| 2026-05-07 19:48 | 44.14714 | -116.70375 | 36048 ft | 386 kts | 314° |
| 2026-05-07 19:48 | 44.18515 | -116.75635 | 36052 ft | 385 kts | 314° |
| 2026-05-07 19:49 | 44.22308 | -116.80899 | 36053 ft | 384 kts | 314° |
| 2026-05-07 19:49 | 44.26091 | -116.86162 | 36053 ft | 384 kts | 314° |
| 2026-05-07 19:50 | 44.29869 | -116.91423 | 36035 ft | 384 kts | 314° |
| 2026-05-07 19:50 | 44.33648 | -116.96688 | 36046 ft | 383 kts | 314° |
| 2026-05-07 19:51 | 44.37410 | -117.01951 | 36046 ft | 382 kts | 314° |
| 2026-05-07 19:51 | 44.41144 | -117.07179 | 36042 ft | 382 kts | 314° |
| 2026-05-07 19:52 | 44.44899 | -117.12449 | 36042 ft | 382 kts | 314° |
| 2026-05-07 19:52 | 44.48651 | -117.17715 | 36045 ft | 382 kts | 314° |
| 2026-05-07 19:53 | 44.52397 | -117.22994 | 36044 ft | 382 kts | 314° |
| 2026-05-07 19:53 | 44.56143 | -117.28286 | 36041 ft | 382 kts | 314° |
| 2026-05-07 19:54 | 44.59884 | -117.33581 | 36039 ft | 382 kts | 314° |
| 2026-05-07 19:54 | 44.63626 | -117.38875 | 36044 ft | 382 kts | 314° |
| 2026-05-07 19:55 | 44.67358 | -117.44178 | 36058 ft | 381 kts | 314° |
| 2026-05-07 19:55 | 44.71086 | -117.49477 | 36070 ft | 381 kts | 314° |
| 2026-05-07 19:56 | 44.74806 | -117.54780 | 36064 ft | 381 kts | 314° |
| 2026-05-07 19:56 | 44.78535 | -117.60096 | 36063 ft | 382 kts | 314° |
| 2026-05-07 19:57 | 44.82271 | -117.65433 | 36081 ft | 383 kts | 314° |
| 2026-05-07 19:57 | 44.86005 | -117.70804 | 36093 ft | 384 kts | 314° |
| 2026-05-07 19:58 | 44.89745 | -117.76175 | 36098 ft | 384 kts | 314° |
| 2026-05-07 19:58 | 44.93481 | -117.81554 | 36104 ft | 384 kts | 313° |
| 2026-05-07 19:59 | 44.97218 | -117.86948 | 36093 ft | 384 kts | 313° |
| 2026-05-07 19:59 | 45.00955 | -117.92349 | 36056 ft | 384 kts | 313° |
| 2026-05-07 20:00 | 45.04693 | -117.97754 | 36072 ft | 384 kts | 313° |
| 2026-05-07 20:00 | 45.08430 | -118.03168 | 36080 ft | 385 kts | 313° |
| 2026-05-07 20:01 | 45.12166 | -118.08589 | 36085 ft | 385 kts | 313° |
| 2026-05-07 20:01 | 45.15897 | -118.14030 | 36064 ft | 385 kts | 313° |
| 2026-05-07 20:02 | 45.19617 | -118.19481 | 36065 ft | 385 kts | 313° |
| 2026-05-07 20:02 | 45.23345 | -118.24936 | 36073 ft | 385 kts | 313° |
| 2026-05-07 20:03 | 45.27074 | -118.30393 | 36081 ft | 385 kts | 313° |
| 2026-05-07 20:03 | 45.30797 | -118.35847 | 36086 ft | 384 kts | 313° |
| 2026-05-07 20:04 | 45.34512 | -118.41306 | 36085 ft | 384 kts | 313° |
| 2026-05-07 20:04 | 45.38220 | -118.46781 | 36087 ft | 384 kts | 313° |
| 2026-05-07 20:05 | 45.41902 | -118.52220 | 36091 ft | 384 kts | 313° |
| 2026-05-07 20:05 | 45.45607 | -118.57704 | 36085 ft | 384 kts | 313° |
| 2026-05-07 20:06 | 45.49307 | -118.63197 | 36076 ft | 384 kts | 313° |
| 2026-05-07 20:06 | 45.53003 | -118.68696 | 36073 ft | 384 kts | 313° |
| 2026-05-07 20:07 | 45.56696 | -118.74197 | 36082 ft | 384 kts | 313° |
| 2026-05-07 20:07 | 45.60390 | -118.79702 | 36082 ft | 384 kts | 313° |
| 2026-05-07 20:08 | 45.64077 | -118.85212 | 36083 ft | 384 kts | 313° |
| 2026-05-07 20:08 | 45.67762 | -118.90735 | 36082 ft | 384 kts | 313° |
| 2026-05-07 20:09 | 45.71402 | -118.96318 | 36047 ft | 384 kts | 311° |
| 2026-05-07 20:10 | 45.76564 | -119.05066 | 36044 ft | 383 kts | 309° |
| 2026-05-07 20:10 | 45.79976 | -119.10938 | 36059 ft | 383 kts | 309° |
| 2026-05-07 20:11 | 45.83410 | -119.16787 | 36030 ft | 383 kts | 309° |
| 2026-05-07 20:11 | 45.86866 | -119.22631 | 36038 ft | 385 kts | 309° |
| 2026-05-07 20:12 | 45.90326 | -119.28500 | 36041 ft | 385 kts | 309° |
| 2026-05-07 20:12 | 45.93201 | -119.33395 | 36042 ft | 386 kts | 309° |
| 2026-05-07 20:13 | 45.96660 | -119.39308 | 36040 ft | 387 kts | 309° |
| 2026-05-07 20:13 | 46.00685 | -119.46195 | 36038 ft | 387 kts | 309° |
| 2026-05-07 20:14 | 46.03582 | -119.51167 | 36038 ft | 387 kts | 309° |
| 2026-05-07 20:14 | 46.07038 | -119.57111 | 36035 ft | 387 kts | 309° |
| 2026-05-07 20:15 | 46.10473 | -119.63018 | 36033 ft | 387 kts | 309° |
| 2026-05-07 20:15 | 46.13928 | -119.68975 | 36036 ft | 387 kts | 309° |
| 2026-05-07 20:16 | 46.17376 | -119.74941 | 36029 ft | 387 kts | 309° |
| 2026-05-07 20:16 | 46.20821 | -119.80918 | 36033 ft | 387 kts | 309° |
| 2026-05-07 20:17 | 46.24268 | -119.86892 | 36028 ft | 387 kts | 309° |
| 2026-05-07 20:17 | 46.27706 | -119.92877 | 36023 ft | 387 kts | 309° |
| 2026-05-07 20:18 | 46.31162 | -119.98856 | 36018 ft | 388 kts | 309° |
| 2026-05-07 20:18 | 46.34638 | -120.04837 | 36006 ft | 389 kts | 309° |
| 2026-05-07 20:19 | 46.38129 | -120.10823 | 36003 ft | 389 kts | 309° |
| 2026-05-07 20:19 | 46.41629 | -120.16820 | 36008 ft | 390 kts | 309° |